sensor_id;sensor_type;location;lat;lon;timestamp;temperature;humidity
46029;DHT22;31763;48.180;7.904;2022-11-15T00:00:57;12.30;99.90
46029;DHT22;31763;48.180;7.904;2022-11-15T00:03:26;12.20;99.90
46029;DHT22;31763;48.180;7.904;2022-11-15T00:05:53;12.20;99.90
46029;DHT22;31763;48.180;7.904;2022-11-15T00:08:20;12.20;99.90
46029;DHT22;31763;48.180;7.904;2022-11-15T00:10:55;12.20;99.90
46029;DHT22;31763;48.180;7.904;2022-11-15T00:13:23;12.20;99.90
46029;DHT22;31763;48.180;7.904;2022-11-15T00:15:50;12.10;99.90
46029;DHT22;31763;48.180;7.904;2022-11-15T00:18:17;12.20;99.90
46029;DHT22;31763;48.180;7.904;2022-11-15T00:20:44;12.20;99.90
46029;DHT22;31763;48.180;7.904;2022-11-15T00:23:11;12.20;99.90
46029;DHT22;31763;48.180;7.904;2022-11-15T00:25:38;12.20;99.90
46029;DHT22;31763;48.180;7.904;2022-11-15T00:28:05;12.20;99.90
46029;DHT22;31763;48.180;7.904;2022-11-15T00:30:32;12.10;99.90
46029;DHT22;31763;48.180;7.904;2022-11-15T00:33:06;12.10;99.90
46029;DHT22;31763;48.180;7.904;2022-11-15T00:35:34;12.20;99.90
46029;DHT22;31763;48.180;7.904;2022-11-15T00:38:01;12.20;99.90
46029;DHT22;31763;48.180;7.904;2022-11-15T00:40:29;12.20;99.90
46029;DHT22;31763;48.180;7.904;2022-11-15T00:42:56;12.20;99.90
46029;DHT22;31763;48.180;7.904;2022-11-15T00:45:23;12.10;99.90
46029;DHT22;31763;48.180;7.904;2022-11-15T00:47:51;12.10;99.90
46029;DHT22;31763;48.180;7.904;2022-11-15T00:50:18;12.00;99.90
46029;DHT22;31763;48.180;7.904;2022-11-15T00:52:45;12.00;99.90
46029;DHT22;31763;48.180;7.904;2022-11-15T00:55:19;12.00;99.90
46029;DHT22;31763;48.180;7.904;2022-11-15T00:57:46;11.90;99.90
46029;DHT22;31763;48.180;7.904;2022-11-15T01:00:13;11.80;99.90
46029;DHT22;31763;48.180;7.904;2022-11-15T01:02:40;11.70;99.90
46029;DHT22;31763;48.180;7.904;2022-11-15T01:05:07;11.70;99.90
46029;DHT22;31763;48.180;7.904;2022-11-15T01:07:35;11.60;99.90
46029;DHT22;31763;48.180;7.904;2022-11-15T01:10:02;11.50;99.90
46029;DHT22;31763;48.180;7.904;2022-11-15T01:12:30;11.50;99.90
46029;DHT22;31763;48.180;7.904;2022-11-15T01:14:57;11.50;99.90
46029;DHT22;31763;48.180;7.904;2022-11-15T01:17:24;11.50;99.90
46029;DHT22;31763;48.180;7.904;2022-11-15T01:19:51;11.50;99.90
46029;DHT22;31763;48.180;7.904;2022-11-15T01:22:18;11.50;99.90
46029;DHT22;31763;48.180;7.904;2022-11-15T01:24:45;11.40;99.90
46029;DHT22;31763;48.180;7.904;2022-11-15T01:27:11;11.20;99.90
46029;DHT22;31763;48.180;7.904;2022-11-15T01:29:38;11.00;99.90
46029;DHT22;31763;48.180;7.904;2022-11-15T01:32:05;11.00;99.90
46029;DHT22;31763;48.180;7.904;2022-11-15T01:34:32;11.00;99.90
46029;DHT22;31763;48.180;7.904;2022-11-15T01:36:59;11.10;99.90
46029;DHT22;31763;48.180;7.904;2022-11-15T01:39:25;11.10;99.90
46029;DHT22;31763;48.180;7.904;2022-11-15T01:41:53;11.20;99.90
46029;DHT22;31763;48.180;7.904;2022-11-15T01:44:41;11.30;99.90
46029;DHT22;31763;48.180;7.904;2022-11-15T01:47:23;11.40;99.90
46029;DHT22;31763;48.180;7.904;2022-11-15T01:49:59;11.50;99.90
46029;DHT22;31763;48.180;7.904;2022-11-15T01:52:30;11.70;99.90
46029;DHT22;31763;48.180;7.904;2022-11-15T01:55:02;11.80;99.90
46029;DHT22;31763;48.180;7.904;2022-11-15T01:57:34;11.80;99.90
46029;DHT22;31763;48.180;7.904;2022-11-15T02:00:04;11.90;99.90
46029;DHT22;31763;48.180;7.904;2022-11-15T02:02:55;11.90;99.90
46029;DHT22;31763;48.180;7.904;2022-11-15T02:05:23;12.00;99.90
46029;DHT22;31763;48.180;7.904;2022-11-15T02:07:51;12.00;99.90
46029;DHT22;31763;48.180;7.904;2022-11-15T02:10:21;12.00;99.90
46029;DHT22;31763;48.180;7.904;2022-11-15T02:12:50;12.10;99.90
46029;DHT22;31763;48.180;7.904;2022-11-15T02:15:18;12.10;99.90
46029;DHT22;31763;48.180;7.904;2022-11-15T02:18:16;12.10;99.90
46029;DHT22;31763;48.180;7.904;2022-11-15T02:24:27;12.00;99.90
46029;DHT22;31763;48.180;7.904;2022-11-15T02:36:01;12.00;99.90
46029;DHT22;31763;48.180;7.904;2022-11-15T02:38:54;12.00;99.90
46029;DHT22;31763;48.180;7.904;2022-11-15T02:41:31;12.10;99.90
46029;DHT22;31763;48.180;7.904;2022-11-15T02:44:35;12.10;99.90
46029;DHT22;31763;48.180;7.904;2022-11-15T02:47:25;12.10;99.90
46029;DHT22;31763;48.180;7.904;2022-11-15T02:50:06;12.10;99.90
46029;DHT22;31763;48.180;7.904;2022-11-15T02:52:54;12.10;99.90
46029;DHT22;31763;48.180;7.904;2022-11-15T02:55:36;12.00;99.90
46029;DHT22;31763;48.180;7.904;2022-11-15T02:59:00;12.10;99.90
46029;DHT22;31763;48.180;7.904;2022-11-15T03:12:41;12.00;99.90
46029;DHT22;31763;48.180;7.904;2022-11-15T03:15:40;12.00;99.90
46029;DHT22;31763;48.180;7.904;2022-11-15T03:18:41;11.90;99.90
46029;DHT22;31763;48.180;7.904;2022-11-15T03:21:57;11.80;99.90
46029;DHT22;31763;48.180;7.904;2022-11-15T03:24:43;11.70;99.90
46029;DHT22;31763;48.180;7.904;2022-11-15T03:27:25;11.70;99.90
46029;DHT22;31763;48.180;7.904;2022-11-15T03:30:02;11.50;99.90
46029;DHT22;31763;48.180;7.904;2022-11-15T03:32:47;11.50;99.90
46029;DHT22;31763;48.180;7.904;2022-11-15T03:35:27;11.40;99.90
46029;DHT22;31763;48.180;7.904;2022-11-15T03:38:21;11.40;99.90
46029;DHT22;31763;48.180;7.904;2022-11-15T03:40:59;11.40;99.90
46029;DHT22;31763;48.180;7.904;2022-11-15T03:43:47;11.30;99.90
46029;DHT22;31763;48.180;7.904;2022-11-15T23:06:04;9.90;99.90
46029;DHT22;31763;48.180;7.904;2022-11-15T23:08:32;10.00;99.90
46029;DHT22;31763;48.180;7.904;2022-11-15T23:11:00;9.90;99.90
46029;DHT22;31763;48.180;7.904;2022-11-15T23:13:49;9.90;99.90
46029;DHT22;31763;48.180;7.904;2022-11-15T23:16:17;10.00;99.90
46029;DHT22;31763;48.180;7.904;2022-11-15T23:19:06;9.90;99.90
46029;DHT22;31763;48.180;7.904;2022-11-15T23:21:43;10.00;99.90
46029;DHT22;31763;48.180;7.904;2022-11-15T23:24:30;10.00;99.90
46029;DHT22;31763;48.180;7.904;2022-11-15T23:27:03;10.00;99.90
46029;DHT22;31763;48.180;7.904;2022-11-15T23:29:33;10.10;99.90
46029;DHT22;31763;48.180;7.904;2022-11-15T23:32:22;10.20;99.90
46029;DHT22;31763;48.180;7.904;2022-11-15T23:35:07;10.10;99.90
46029;DHT22;31763;48.180;7.904;2022-11-15T23:37:34;10.10;99.90
46029;DHT22;31763;48.180;7.904;2022-11-15T23:40:01;10.20;99.90
46029;DHT22;31763;48.180;7.904;2022-11-15T23:42:27;10.20;99.90
46029;DHT22;31763;48.180;7.904;2022-11-15T23:44:54;10.10;99.90
46029;DHT22;31763;48.180;7.904;2022-11-15T23:47:21;10.20;99.90
46029;DHT22;31763;48.180;7.904;2022-11-15T23:49:48;10.20;99.90
46029;DHT22;31763;48.180;7.904;2022-11-15T23:52:15;10.10;99.90
46029;DHT22;31763;48.180;7.904;2022-11-15T23:54:43;10.10;99.90
46029;DHT22;31763;48.180;7.904;2022-11-15T23:57:09;10.10;99.90
46029;DHT22;31763;48.180;7.904;2022-11-15T23:59:39;10.00;99.90
